createdAt,value
2022-11-06T00:00:41.663Z,2.67
2022-11-06T00:01:44.199Z,2.95
2022-11-06T00:02:46.869Z,3.63
2022-11-06T00:03:53.146Z,2.90
2022-11-06T00:05:15.535Z,3.22
2022-11-06T00:06:37.046Z,2.67
2022-11-06T00:07:39.598Z,2.80
2022-11-06T00:08:42.402Z,2.92
2022-11-06T00:09:44.769Z,3.22
2022-11-06T00:10:47.513Z,3.20
2022-11-06T00:11:51.066Z,2.65
2022-11-06T00:12:53.641Z,3.30
2022-11-06T00:13:56.296Z,3.05
2022-11-06T00:14:58.695Z,2.78
2022-11-06T00:16:08.592Z,3.33
2022-11-06T00:17:11.205Z,2.90
2022-11-06T00:18:13.772Z,3.08
2022-11-06T00:19:17.146Z,3.22
2022-11-06T00:20:19.765Z,2.80
2022-11-06T00:21:25.650Z,3.17
2022-11-06T00:22:28.259Z,3.10
2022-11-06T00:23:30.559Z,3.15
2022-11-06T00:24:32.973Z,2.80
2022-11-06T00:25:35.430Z,2.78
2022-11-06T00:26:38.271Z,3.30
2022-11-06T00:27:41.671Z,3.78
2022-11-06T00:28:44.322Z,2.80
2022-11-06T00:29:46.846Z,3.20
2022-11-06T00:30:49.605Z,3.05
2022-11-06T00:31:52.031Z,3.38
2022-11-06T00:32:54.513Z,3.40
2022-11-06T00:33:59.610Z,3.03
2022-11-06T00:35:02.183Z,3.63
2022-11-06T00:36:10.536Z,2.60
2022-11-06T00:37:15.544Z,2.50
2022-11-06T00:38:17.982Z,3.08
2022-11-06T00:39:20.471Z,2.90
2022-11-06T00:40:23.270Z,2.55
2022-11-06T00:41:26.308Z,3.00
2022-11-06T00:42:28.659Z,2.80
2022-11-06T00:43:31.205Z,3.17
2022-11-06T00:44:33.696Z,3.00
2022-11-06T00:45:36.313Z,3.03
2022-11-06T00:46:39.167Z,2.85
2022-11-06T00:47:42.311Z,3.00
2022-11-06T00:48:45.073Z,2.90
2022-11-06T00:49:49.642Z,3.00
2022-11-06T00:50:52.055Z,3.20
2022-11-06T00:51:54.825Z,3.08
2022-11-06T00:52:57.235Z,2.97
2022-11-06T00:54:02.981Z,2.70
2022-11-06T00:55:06.499Z,3.40
2022-11-06T00:56:15.935Z,3.33
2022-11-06T00:57:18.549Z,3.20
2022-11-06T00:58:21.059Z,3.10
2022-11-06T00:59:23.409Z,3.53
2022-11-06T01:00:26.016Z,3.22
2022-11-06T01:01:34.076Z,2.50
2022-11-06T01:02:39.248Z,2.78
2022-11-06T01:03:43.892Z,2.85
2022-11-06T01:04:47.373Z,2.83
2022-11-06T01:05:49.846Z,3.10
2022-11-06T01:06:54.818Z,3.20
2022-11-06T01:07:57.304Z,3.15
2022-11-06T01:09:00.411Z,2.90
2022-11-06T01:10:05.734Z,3.03
2022-11-06T01:11:15.219Z,3.53
2022-11-06T01:12:17.705Z,3.10
2022-11-06T01:13:20.033Z,3.03
2022-11-06T01:14:23.742Z,3.55
2022-11-06T01:15:28.813Z,2.50
2022-11-06T01:16:32.151Z,2.95
2022-11-06T01:17:43.136Z,2.63
2022-11-06T01:18:46.604Z,3.80
2022-11-06T01:19:49.048Z,2.70
2022-11-06T01:20:51.629Z,3.33
2022-11-06T01:21:54.699Z,2.78
2022-11-06T01:22:57.264Z,2.90
2022-11-06T01:24:08.564Z,2.90
2022-11-06T01:25:11.007Z,3.13
2022-11-06T01:26:18.612Z,2.90
2022-11-06T01:27:31.427Z,3.33
2022-11-06T01:28:34.283Z,3.35
2022-11-06T01:29:37.053Z,3.05
2022-11-06T01:30:39.640Z,3.03
2022-11-06T01:31:42.297Z,3.53
2022-11-06T01:32:47.732Z,3.17
2022-11-06T01:33:51.520Z,3.10
2022-11-06T01:34:53.930Z,3.17
2022-11-06T01:35:56.289Z,2.67
2022-11-06T01:36:58.723Z,3.40
2022-11-06T01:38:01.176Z,2.50
2022-11-06T01:39:06.306Z,3.10
2022-11-06T01:40:09.217Z,2.88
2022-11-06T01:41:18.340Z,3.28
2022-11-06T01:42:21.852Z,2.65
2022-11-06T01:43:45.457Z,3.30
2022-11-06T01:45:14.787Z,3.30
2022-11-06T01:46:19.263Z,3.15
2022-11-06T01:47:23.780Z,3.50
2022-11-06T01:48:28.219Z,2.95
2022-11-06T01:49:37.503Z,3.35
2022-11-06T01:50:42.621Z,2.60
2022-11-06T01:51:50.405Z,3.40
2022-11-06T01:52:53.105Z,3.00
2022-11-06T01:53:56.399Z,3.10
2022-11-06T01:55:08.734Z,3.42
2022-11-06T01:56:13.354Z,3.60
2022-11-06T01:57:16.003Z,2.67
2022-11-06T01:58:21.835Z,2.80
2022-11-06T01:59:26.738Z,3.08
2022-11-06T02:00:31.370Z,3.25
2022-11-06T02:01:34.332Z,3.63
2022-11-06T02:02:38.570Z,3.10
2022-11-06T02:03:51.885Z,3.10
2022-11-06T02:04:54.270Z,3.25
2022-11-06T02:05:58.260Z,3.28
2022-11-06T02:07:01.476Z,3.50
2022-11-06T02:08:04.609Z,3.30
2022-11-06T02:09:11.570Z,3.10
2022-11-06T02:27:15.983Z,3.20
2022-11-06T02:28:39.963Z,3.58
2022-11-06T02:30:05.710Z,3.45
2022-11-06T02:31:15.306Z,2.92
2022-11-06T02:32:23.679Z,3.20
2022-11-06T02:33:30.469Z,3.42
2022-11-06T02:34:37.217Z,2.80
2022-11-06T02:35:47.434Z,3.10
2022-11-06T02:37:00.964Z,2.92
2022-11-06T02:38:16.604Z,3.05
2022-11-06T02:39:22.563Z,3.15
2022-11-06T02:40:29.373Z,2.83
2022-11-06T02:41:38.452Z,2.80
2022-11-06T02:42:46.418Z,2.72
2022-11-06T02:43:55.274Z,2.67
2022-11-06T02:44:59.661Z,2.83
2022-11-06T02:46:17.336Z,2.78
2022-11-06T02:47:22.705Z,2.60
2022-11-06T02:48:31.641Z,2.63
2022-11-06T02:49:54.571Z,2.80
2022-11-06T02:51:00.786Z,2.83
2022-11-06T02:52:11.658Z,2.95
2022-11-06T02:53:17.082Z,2.90
2022-11-06T02:54:22.923Z,3.00
2022-11-06T02:55:34.316Z,3.08
2022-11-06T02:56:42.814Z,2.88
2022-11-06T02:57:52.519Z,2.88
2022-11-06T02:59:20.092Z,3.17
2022-11-06T03:00:24.844Z,3.13
2022-11-06T03:01:27.085Z,2.95
2022-11-06T03:02:34.907Z,2.60
2022-11-06T03:03:42.952Z,2.92
2022-11-06T03:04:53.613Z,2.83
2022-11-06T03:06:10.955Z,2.60
2022-11-06T03:07:39.867Z,2.92
2022-11-06T03:08:54.812Z,3.20
2022-11-06T03:09:57.821Z,2.70
2022-11-06T03:11:23.471Z,2.97
2022-11-06T03:12:30.220Z,2.90
2022-11-06T03:13:47.434Z,2.83
2022-11-06T03:15:04.821Z,2.60
2022-11-06T03:16:41.053Z,2.75
2022-11-06T03:17:51.970Z,3.15
2022-11-06T03:19:04.021Z,2.40
2022-11-06T03:20:16.424Z,2.85
2022-11-06T03:21:31.268Z,2.90
2022-11-06T03:22:41.862Z,3.10
2022-11-06T03:24:04.330Z,2.75
2022-11-06T03:25:30.224Z,2.85
2022-11-06T03:26:43.360Z,2.80
2022-11-06T03:27:59.147Z,2.92
2022-11-06T03:29:40.689Z,2.72
2022-11-06T03:30:50.559Z,2.55
2022-11-06T03:31:58.983Z,2.85
2022-11-06T03:33:18.513Z,2.55
2022-11-06T03:34:34.366Z,2.67
2022-11-06T03:36:06.231Z,2.83
2022-11-06T03:37:19.020Z,3.17
2022-11-06T03:38:36.063Z,2.83
2022-11-06T03:39:47.852Z,2.70
2022-11-06T03:40:54.719Z,3.35
2022-11-06T03:42:04.825Z,3.00
2022-11-06T03:43:10.021Z,2.97
2022-11-06T03:44:17.479Z,2.63
2022-11-06T03:45:22.849Z,3.70
2022-11-06T03:46:28.493Z,2.72
2022-11-06T03:47:38.810Z,3.08
2022-11-06T03:48:46.947Z,2.80
2022-11-06T03:49:54.875Z,3.00
2022-11-06T03:51:13.804Z,3.15
2022-11-06T03:52:23.528Z,3.30
2022-11-06T03:53:36.064Z,3.13
2022-11-06T03:54:50.076Z,3.30
2022-11-06T03:55:57.483Z,3.08
2022-11-06T03:57:07.160Z,2.72
2022-11-06T03:58:18.657Z,3.17
2022-11-06T03:59:48.290Z,3.10
2022-11-06T04:00:53.179Z,2.55
2022-11-06T04:01:58.607Z,2.60
2022-11-06T04:03:07.504Z,3.13
2022-11-06T04:04:29.371Z,2.83
2022-11-06T04:05:48.018Z,2.95
2022-11-06T04:06:56.473Z,2.80
2022-11-06T04:08:17.846Z,2.95
2022-11-06T04:09:42.871Z,2.95
2022-11-06T04:11:09.143Z,2.75
2022-11-06T04:12:34.380Z,2.67
2022-11-06T04:13:57.556Z,2.85
2022-11-06T04:15:01.400Z,2.60
2022-11-06T04:16:03.698Z,2.92
2022-11-06T04:17:10.072Z,2.92
2022-11-06T04:18:14.770Z,2.65
2022-11-06T04:19:19.683Z,2.78
2022-11-06T04:20:43.043Z,2.88
2022-11-06T04:22:03.389Z,2.95
2022-11-06T04:23:20.362Z,2.90
2022-11-06T04:25:03.602Z,2.95
2022-11-06T04:26:32.461Z,2.97
2022-11-06T04:27:46.945Z,2.55
2022-11-06T04:29:00.614Z,2.72
2022-11-06T04:30:03.171Z,2.95
2022-11-06T04:31:29.782Z,2.97
2022-11-06T04:33:00.486Z,3.20
2022-11-06T04:34:03.045Z,3.08
2022-11-06T04:35:37.598Z,3.05
2022-11-06T04:36:57.786Z,2.97
2022-11-06T04:38:22.133Z,3.38
2022-11-06T04:39:42.543Z,2.88
2022-11-06T04:41:06.675Z,3.20
2022-11-06T04:42:50.209Z,3.05
2022-11-06T04:43:57.715Z,3.25
2022-11-06T04:45:05.066Z,3.08
2022-11-06T04:46:10.254Z,3.33
2022-11-06T04:47:18.321Z,3.65
2022-11-06T04:48:22.493Z,3.05
2022-11-06T04:50:30.904Z,3.17
2022-11-06T04:51:37.049Z,3.15
2022-11-06T04:52:40.891Z,3.03
2022-11-06T04:53:43.838Z,3.08
2022-11-06T04:54:47.277Z,3.30
2022-11-06T04:55:52.774Z,3.45
2022-11-06T04:57:00.842Z,3.40
2022-11-06T04:58:03.183Z,3.28
2022-11-06T04:59:06.297Z,3.35
2022-11-06T05:00:13.320Z,3.60
2022-11-06T05:01:15.544Z,3.17
2022-11-06T05:02:18.298Z,3.80
2022-11-06T05:03:20.694Z,3.60
2022-11-06T05:04:22.969Z,4.15
2022-11-06T05:05:25.160Z,3.40
2022-11-06T05:06:30.082Z,3.55
2022-11-06T05:07:32.613Z,3.40
2022-11-06T05:08:35.339Z,3.88
2022-11-06T05:09:37.579Z,3.50
2022-11-06T05:10:39.808Z,3.47
2022-11-06T05:11:42.097Z,3.88
2022-11-06T05:12:44.347Z,3.47
2022-11-06T05:13:46.581Z,3.67
2022-11-06T05:14:48.829Z,3.83
2022-11-06T05:15:59.222Z,3.70
2022-11-06T05:17:01.603Z,3.40
2022-11-06T05:18:04.767Z,3.90
2022-11-06T05:19:07.699Z,4.05
2022-11-06T05:20:10.179Z,3.38
2022-11-06T05:21:31.483Z,4.20
2022-11-06T05:22:52.427Z,3.50
2022-11-06T05:23:54.586Z,3.45
2022-11-06T05:24:56.799Z,4.07
2022-11-06T05:25:58.961Z,4.18
2022-11-06T05:27:01.444Z,4.93
2022-11-06T05:28:08.222Z,5.10
2022-11-06T05:29:11.988Z,4.60
2022-11-06T05:30:14.189Z,5.30
2022-11-06T05:31:16.797Z,4.68
2022-11-06T05:32:18.991Z,4.40
2022-11-06T05:33:21.225Z,4.45
2022-11-06T05:34:23.415Z,4.95
2022-11-06T05:35:25.688Z,4.25
2022-11-06T05:36:27.924Z,4.43
2022-11-06T05:37:30.089Z,4.45
2022-11-06T05:38:33.943Z,4.65
2022-11-06T05:39:41.425Z,5.05
2022-11-06T05:40:44.547Z,4.90
2022-11-06T05:41:46.643Z,4.60
2022-11-06T05:42:48.876Z,5.65
2022-11-06T05:43:51.246Z,5.28
2022-11-06T05:44:53.481Z,4.15
2022-11-06T05:45:55.822Z,4.45
2022-11-06T05:46:59.004Z,5.10
2022-11-06T05:48:01.245Z,4.20
2022-11-06T05:49:03.481Z,4.05
2022-11-06T05:50:06.212Z,3.58
2022-11-06T05:51:08.975Z,3.80
2022-11-06T05:52:11.224Z,3.65
2022-11-06T05:53:13.974Z,4.57
2022-11-06T05:54:16.552Z,3.88
2022-11-06T05:55:18.997Z,4.40
2022-11-06T05:56:21.362Z,3.90
2022-11-06T05:57:24.055Z,3.67
2022-11-06T05:58:27.660Z,4.07
2022-11-06T05:59:29.879Z,4.28
2022-11-06T06:00:32.180Z,4.07
2022-11-06T06:01:34.706Z,4.18
2022-11-06T06:02:37.874Z,4.20
2022-11-06T06:03:40.277Z,4.38
2022-11-06T06:04:42.488Z,4.22
2022-11-06T06:05:44.691Z,4.03
2022-11-06T06:06:47.117Z,4.22
2022-11-06T06:07:49.572Z,4.40
2022-11-06T06:08:52.010Z,4.25
2022-11-06T06:09:54.331Z,4.03
2022-11-06T06:10:56.593Z,4.88
2022-11-06T06:11:58.816Z,4.40
2022-11-06T06:13:01.062Z,4.38
2022-11-06T06:14:03.394Z,4.72
2022-11-06T06:15:07.505Z,4.28
2022-11-06T06:16:09.698Z,4.43
2022-11-06T06:17:12.252Z,4.28
2022-11-06T06:18:16.648Z,4.03
2022-11-06T06:19:20.972Z,3.97
2022-11-06T06:20:23.252Z,3.88
2022-11-06T06:21:27.975Z,4.15
2022-11-06T06:22:32.193Z,3.42
2022-11-06T06:25:19.530Z,3.65
2022-11-06T06:26:26.427Z,4.20
2022-11-06T06:27:28.768Z,4.95
2022-11-06T06:28:32.049Z,4.25
2022-11-06T06:29:34.660Z,4.35
2022-11-06T06:30:36.989Z,4.22
2022-11-06T06:31:39.199Z,4.22
2022-11-06T06:32:41.732Z,5.32
2022-11-06T06:33:44.055Z,3.95
2022-11-06T06:34:46.464Z,4.15
2022-11-06T06:35:48.796Z,4.43
2022-11-06T06:36:52.553Z,4.22
2022-11-06T06:37:54.813Z,4.35
2022-11-06T06:38:57.125Z,3.95
2022-11-06T06:39:59.597Z,3.65
2022-11-06T06:41:03.932Z,3.67
2022-11-06T06:42:06.473Z,4.30
2022-11-06T06:43:08.988Z,4.40
2022-11-06T06:44:11.391Z,4.38
2022-11-06T06:45:13.910Z,3.97
2022-11-06T06:46:16.892Z,3.92
2022-11-06T06:47:20.080Z,3.70
2022-11-06T06:48:22.802Z,4.18
2022-11-06T06:49:25.178Z,3.70
2022-11-06T06:50:27.467Z,3.90
2022-11-06T06:51:29.798Z,4.20
2022-11-06T06:52:32.023Z,3.40
2022-11-06T06:53:35.259Z,3.97
2022-11-06T06:54:37.706Z,4.10
2022-11-06T06:55:40.892Z,3.42
2022-11-06T06:56:43.300Z,3.70
2022-11-06T06:57:45.620Z,3.90
2022-11-06T06:58:48.406Z,4.18
2022-11-06T06:59:51.067Z,3.58
2022-11-06T07:00:53.575Z,3.78
2022-11-06T07:01:56.567Z,4.50
2022-11-06T07:02:59.022Z,3.85
2022-11-06T07:04:04.213Z,4.07
2022-11-06T07:05:07.344Z,3.67
2022-11-06T07:06:09.605Z,3.38
2022-11-06T07:07:11.893Z,3.40
2022-11-06T07:08:16.016Z,3.58
2022-11-06T07:09:19.194Z,3.63
2022-11-06T07:10:21.497Z,4.05
2022-11-06T07:11:23.957Z,3.70
2022-11-06T07:12:26.673Z,4.68
2022-11-06T07:13:36.885Z,3.50
2022-11-06T07:14:39.152Z,3.47
2022-11-06T07:15:41.589Z,3.30
2022-11-06T07:16:43.892Z,3.40
2022-11-06T07:17:46.154Z,3.50
2022-11-06T07:18:48.519Z,3.42
2022-11-06T07:19:50.945Z,3.70
2022-11-06T07:20:55.183Z,3.38
2022-11-06T07:21:57.761Z,3.58
2022-11-06T07:23:00.477Z,3.40
2022-11-06T07:24:08.527Z,4.00
2022-11-06T07:25:10.962Z,3.70
2022-11-06T07:26:15.059Z,3.47
2022-11-06T07:27:17.508Z,3.83
2022-11-06T07:28:20.513Z,3.55
2022-11-06T07:29:23.181Z,4.10
2022-11-06T07:30:26.078Z,3.60
2022-11-06T07:31:28.491Z,3.33
2022-11-06T07:32:31.469Z,3.88
2022-11-06T07:33:34.755Z,3.92
2022-11-06T07:34:39.086Z,4.03
2022-11-06T07:35:41.601Z,4.30
2022-11-06T07:36:44.536Z,3.60
2022-11-06T07:37:47.161Z,3.72
2022-11-06T07:38:51.018Z,3.78
2022-11-06T07:39:53.660Z,3.60
2022-11-06T07:40:55.949Z,3.17
2022-11-06T07:41:58.302Z,3.50
2022-11-06T07:44:12.208Z,3.42
2022-11-06T07:45:14.582Z,3.63
2022-11-06T07:46:17.231Z,3.67
2022-11-06T07:47:19.541Z,3.00
2022-11-06T07:48:23.899Z,3.10
2022-11-06T07:49:26.453Z,3.25
2022-11-06T07:50:29.498Z,3.70
2022-11-06T07:51:32.483Z,3.05
2022-11-06T07:52:35.227Z,2.97
2022-11-06T07:53:38.546Z,3.30
2022-11-06T07:54:41.229Z,3.47
2022-11-06T07:55:56.992Z,4.03
2022-11-06T07:56:59.518Z,3.08
2022-11-06T07:58:01.919Z,3.03
2022-11-06T07:59:04.946Z,3.33
2022-11-06T08:00:08.668Z,3.20
2022-11-06T08:02:37.101Z,2.97
2022-11-06T08:03:39.401Z,3.17
2022-11-06T08:04:41.768Z,3.53
2022-11-06T08:05:44.631Z,3.05
2022-11-06T08:06:47.036Z,3.17
2022-11-06T08:07:49.379Z,3.05
2022-11-06T08:08:57.678Z,3.03
2022-11-06T08:10:01.085Z,3.13
2022-11-06T08:11:05.360Z,3.10
2022-11-06T08:12:08.641Z,2.95
2022-11-06T08:13:12.588Z,2.85
2022-11-06T08:14:14.942Z,3.10
2022-11-06T08:15:17.473Z,2.78
2022-11-06T08:16:19.719Z,3.28
2022-11-06T08:17:22.289Z,2.88
2022-11-06T08:18:24.929Z,3.00
2022-11-06T08:19:28.038Z,2.88
2022-11-06T08:20:34.515Z,2.85
2022-11-06T08:21:38.763Z,2.80
2022-11-06T08:22:41.119Z,3.00
2022-11-06T08:23:43.596Z,3.00
2022-11-06T08:24:45.812Z,3.28
2022-11-06T08:25:48.220Z,3.00
2022-11-06T08:26:50.679Z,2.90
2022-11-06T08:27:58.584Z,2.88
2022-11-06T08:29:01.702Z,2.92
2022-11-06T08:30:04.902Z,3.58
2022-11-06T08:31:08.888Z,3.35
2022-11-06T08:32:11.789Z,3.50
2022-11-06T08:34:17.278Z,3.20
2022-11-06T08:35:25.051Z,2.97
2022-11-06T08:36:50.560Z,2.85
2022-11-06T08:37:53.000Z,2.83
2022-11-06T08:38:56.245Z,2.88
2022-11-06T08:39:59.842Z,3.35
2022-11-06T08:41:10.615Z,3.03
2022-11-06T08:42:12.999Z,2.92
2022-11-06T08:43:15.612Z,3.00
2022-11-06T08:44:18.300Z,3.08
2022-11-06T08:45:20.679Z,2.72
2022-11-06T08:46:23.325Z,2.67
2022-11-06T08:47:26.204Z,2.95
2022-11-06T08:48:29.214Z,3.08
2022-11-06T08:49:31.530Z,3.35
2022-11-06T08:50:35.652Z,2.90
2022-11-06T08:52:40.353Z,2.88
2022-11-06T08:53:42.655Z,3.40
2022-11-06T08:54:45.056Z,3.55
2022-11-06T08:55:47.512Z,3.53
2022-11-06T08:56:49.968Z,3.25
2022-11-06T08:57:56.180Z,3.50
2022-11-06T08:59:04.899Z,3.13
2022-11-06T09:00:08.028Z,3.30
2022-11-06T09:01:10.612Z,2.80
2022-11-06T09:02:14.239Z,3.47
2022-11-06T09:03:20.203Z,5.07
2022-11-06T09:04:23.724Z,7.22
2022-11-06T09:05:26.614Z,3.97
2022-11-06T09:06:28.950Z,3.50
2022-11-06T09:07:31.203Z,4.15
2022-11-06T09:08:33.638Z,3.53
2022-11-06T09:09:35.885Z,3.30
2022-11-06T09:10:39.474Z,3.47
2022-11-06T09:11:42.920Z,3.45
2022-11-06T09:12:46.306Z,3.67
2022-11-06T09:13:48.779Z,3.83
2022-11-06T09:14:51.057Z,3.05
2022-11-06T09:15:53.379Z,3.42
2022-11-06T09:16:55.809Z,3.10
2022-11-06T09:17:58.184Z,3.30
2022-11-06T09:19:00.660Z,3.47
2022-11-06T09:20:03.046Z,3.50
2022-11-06T09:21:05.707Z,3.88
2022-11-06T09:22:08.867Z,3.50
2022-11-06T09:23:11.973Z,3.60
2022-11-06T09:24:14.592Z,2.67
2022-11-06T09:25:17.279Z,2.95
2022-11-06T09:26:19.673Z,2.53
2022-11-06T09:27:22.420Z,3.08
2022-11-06T09:28:25.021Z,3.47
2022-11-06T09:29:27.480Z,3.05
2022-11-06T09:30:31.618Z,2.80
2022-11-06T09:31:33.996Z,2.97
2022-11-06T09:32:36.184Z,3.20
2022-11-06T09:33:38.613Z,3.13
2022-11-06T09:34:40.890Z,3.45
2022-11-06T09:35:43.280Z,3.40
2022-11-06T09:36:45.968Z,3.42
2022-11-06T09:37:49.542Z,3.88
2022-11-06T09:39:54.556Z,3.42
2022-11-06T09:41:00.124Z,2.70
2022-11-06T09:42:23.685Z,3.03
2022-11-06T09:45:11.159Z,3.03
2022-11-06T09:46:34.161Z,2.67
2022-11-06T09:47:40.743Z,2.80
2022-11-06T09:48:46.712Z,3.05
2022-11-06T09:49:54.931Z,2.67
2022-11-06T09:51:05.499Z,3.00
2022-11-06T09:52:08.145Z,2.75
2022-11-06T09:53:37.374Z,3.10
2022-11-06T09:55:01.579Z,3.80
2022-11-06T09:56:06.204Z,3.38
2022-11-06T09:57:22.003Z,2.78
2022-11-06T09:58:32.140Z,2.83
2022-11-06T09:59:37.411Z,2.60
2022-11-06T10:00:41.142Z,2.95
2022-11-06T10:01:55.916Z,2.60
2022-11-06T10:03:06.174Z,2.72
2022-11-06T10:05:30.502Z,2.83
2022-11-06T10:06:33.437Z,2.28
2022-11-06T10:07:39.154Z,2.97
2022-11-06T10:08:44.258Z,2.80
2022-11-06T10:09:47.172Z,2.80
2022-11-06T10:11:15.308Z,2.63
2022-11-06T10:12:23.421Z,2.70
2022-11-06T10:13:44.419Z,2.47
2022-11-06T10:14:59.586Z,2.83
2022-11-06T10:16:01.872Z,2.72
2022-11-06T10:17:10.082Z,2.63
2022-11-06T10:18:45.050Z,3.35
2022-11-06T10:20:00.013Z,2.92
2022-11-06T10:21:28.304Z,2.92
2022-11-06T10:22:40.198Z,2.78
2022-11-06T10:23:51.479Z,3.08
2022-11-06T10:25:08.977Z,2.95
2022-11-06T10:26:20.060Z,2.97
2022-11-06T10:27:41.168Z,2.80
2022-11-06T10:28:56.157Z,2.75
2022-11-06T10:30:12.017Z,3.00
2022-11-06T10:32:29.554Z,3.05
2022-11-06T10:34:08.361Z,2.97
2022-11-06T10:35:21.122Z,3.30
2022-11-06T10:37:03.763Z,3.58
2022-11-06T10:38:13.762Z,2.88
2022-11-06T10:39:28.991Z,2.72
2022-11-06T10:40:33.555Z,2.65
2022-11-06T10:41:39.221Z,2.85
2022-11-06T10:42:44.013Z,2.85
2022-11-06T10:43:50.074Z,3.35
2022-11-06T10:45:06.052Z,3.40
2022-11-06T10:46:49.239Z,3.08
2022-11-06T10:47:59.071Z,3.05
2022-11-06T10:49:40.622Z,3.20
2022-11-06T10:50:59.175Z,2.63
2022-11-06T10:52:10.857Z,2.92
2022-11-06T10:53:35.527Z,2.95
2022-11-06T10:54:47.799Z,2.60
2022-11-06T10:56:20.996Z,3.10
2022-11-06T10:57:39.975Z,3.28
2022-11-06T10:58:42.313Z,3.00
2022-11-06T10:59:45.245Z,3.38
2022-11-06T11:00:53.211Z,3.05
2022-11-06T11:01:58.948Z,2.60
2022-11-06T11:03:06.973Z,3.10
2022-11-06T11:04:09.628Z,3.35
2022-11-06T11:05:23.539Z,3.80
2022-11-06T11:06:27.113Z,5.00
2022-11-06T11:07:32.606Z,3.80
2022-11-06T11:08:46.312Z,3.22
2022-11-06T11:09:52.260Z,3.05
2022-11-06T11:11:05.949Z,3.10
2022-11-06T11:12:22.767Z,3.95
2022-11-06T11:13:25.100Z,3.35
2022-11-06T11:14:30.275Z,3.05
2022-11-06T11:15:39.556Z,3.28
2022-11-06T11:16:45.273Z,3.40
2022-11-06T11:18:13.539Z,3.08
2022-11-06T11:19:25.390Z,3.00
2022-11-06T11:20:33.742Z,3.00
2022-11-06T11:21:36.429Z,2.90
2022-11-06T11:22:40.949Z,3.28
2022-11-06T11:24:04.293Z,3.17
2022-11-06T11:25:09.481Z,3.00
2022-11-06T11:26:28.113Z,3.20
2022-11-06T11:27:35.406Z,2.60
2022-11-06T11:28:40.593Z,3.25
2022-11-06T11:29:48.287Z,2.83
2022-11-06T11:30:57.400Z,3.42
2022-11-06T11:32:04.009Z,3.67
2022-11-06T11:33:13.393Z,3.80
2022-11-06T11:34:20.244Z,3.50
2022-11-06T11:35:29.206Z,4.10
2022-11-06T11:36:51.558Z,4.07
2022-11-06T11:38:11.938Z,3.13
2022-11-06T11:39:18.367Z,3.50
2022-11-06T11:40:36.222Z,3.25
2022-11-06T11:41:39.540Z,3.47
2022-11-06T11:42:42.329Z,3.25
2022-11-06T11:44:06.334Z,3.08
2022-11-06T11:45:09.016Z,3.20
2022-11-06T11:46:12.778Z,3.13
2022-11-06T11:47:24.796Z,3.03
2022-11-06T11:48:28.079Z,3.00
2022-11-06T11:49:34.053Z,2.67
2022-11-06T11:50:38.870Z,2.75
2022-11-06T11:51:48.623Z,2.80
2022-11-06T11:52:56.962Z,2.60
2022-11-06T11:54:13.371Z,2.80
2022-11-06T11:56:49.730Z,3.17
2022-11-06T11:57:51.478Z,2.90
2022-11-06T11:58:56.699Z,3.50
2022-11-06T12:00:06.409Z,3.30
2022-11-06T12:01:09.711Z,2.95
2022-11-06T12:02:37.240Z,3.83
2022-11-06T12:03:44.031Z,3.17
2022-11-06T12:04:55.184Z,3.70
2022-11-06T12:06:08.456Z,3.15
2022-11-06T12:07:25.653Z,2.70
2022-11-06T12:08:28.526Z,4.05
2022-11-06T12:09:42.938Z,3.97
2022-11-06T12:10:46.106Z,4.15
2022-11-06T12:11:49.640Z,4.10
2022-11-06T12:14:18.719Z,2.97
2022-11-06T12:16:42.328Z,3.10
2022-11-06T12:17:53.787Z,3.17
2022-11-06T12:18:59.190Z,3.25
2022-11-06T12:20:10.900Z,3.28
2022-11-06T12:21:16.403Z,3.03
2022-11-06T12:22:30.128Z,2.70
2022-11-06T12:23:56.889Z,3.05
2022-11-06T12:25:26.480Z,2.90
2022-11-06T12:26:34.021Z,2.85
2022-11-06T12:27:44.456Z,3.10
2022-11-06T12:28:51.762Z,3.05
2022-11-06T12:30:04.007Z,3.03
2022-11-06T12:31:34.396Z,3.08
2022-11-06T12:32:54.246Z,3.00
2022-11-06T12:34:07.117Z,2.92
2022-11-06T12:35:18.900Z,3.33
2022-11-06T12:36:28.275Z,3.30
2022-11-06T12:37:46.705Z,2.72
2022-11-06T12:38:59.451Z,3.15
2022-11-06T12:40:24.496Z,3.03
2022-11-06T12:41:38.163Z,3.20
2022-11-06T12:42:48.067Z,2.95
2022-11-06T12:43:56.394Z,3.20
2022-11-06T12:45:00.548Z,3.17
2022-11-06T12:46:09.771Z,3.03
2022-11-06T12:47:42.401Z,3.38
2022-11-06T12:48:55.115Z,3.60
2022-11-06T12:49:57.806Z,3.45
2022-11-06T12:51:19.160Z,3.55
2022-11-06T12:52:35.316Z,3.63
2022-11-06T12:53:52.715Z,2.95
2022-11-06T12:54:58.415Z,3.70
2022-11-06T12:56:17.422Z,4.10
2022-11-06T12:58:15.674Z,3.80
2022-11-06T12:59:25.278Z,3.47
2022-11-06T13:00:42.476Z,4.63
2022-11-06T13:01:56.054Z,3.92
2022-11-06T13:03:40.074Z,3.90
2022-11-06T13:04:55.634Z,3.67
2022-11-06T13:06:26.471Z,4.30
2022-11-06T13:07:44.137Z,3.80
2022-11-06T13:08:52.368Z,3.42
2022-11-06T13:10:06.245Z,3.45
2022-11-06T13:11:35.779Z,3.78
2022-11-06T13:12:56.763Z,3.63
2022-11-06T13:14:05.533Z,3.70
2022-11-06T13:15:24.416Z,3.22
2022-11-06T13:16:42.284Z,3.13
2022-11-06T13:17:56.106Z,4.03
2022-11-06T13:19:10.171Z,10.13
2022-11-06T13:20:24.750Z,12.43
2022-11-06T13:21:52.045Z,9.48
2022-11-06T13:23:25.772Z,7.70
2022-11-06T13:24:31.708Z,12.68
2022-11-06T13:25:52.025Z,17.83
2022-11-06T13:27:12.524Z,15.23
2022-11-06T13:28:39.988Z,19.55
2022-11-06T13:29:56.258Z,25.83
2022-11-06T13:31:03.604Z,36.22
2022-11-06T13:32:17.436Z,31.50
2022-11-06T13:33:28.046Z,32.55
2022-11-06T13:35:47.711Z,12.20
2022-11-06T13:36:51.406Z,11.43
2022-11-06T13:37:56.275Z,9.85
2022-11-06T13:39:06.012Z,6.95
2022-11-06T13:40:30.504Z,4.50
2022-11-06T13:41:34.138Z,6.05
2022-11-06T13:42:42.078Z,5.65
2022-11-06T13:43:51.224Z,5.72
2022-11-06T13:44:56.722Z,9.20
2022-11-06T13:46:05.716Z,6.15
2022-11-06T13:47:11.134Z,7.60
2022-11-06T13:48:34.611Z,6.10
2022-11-06T13:50:07.838Z,4.63
2022-11-06T13:51:20.037Z,6.07
2022-11-06T13:52:42.033Z,8.27
2022-11-06T13:53:49.635Z,4.78
2022-11-06T13:55:08.633Z,5.45
2022-11-06T13:56:11.465Z,21.25
2022-11-06T13:57:40.988Z,15.60
2022-11-06T13:58:53.693Z,8.05
2022-11-06T14:00:11.627Z,7.60
2022-11-06T14:01:23.101Z,6.15
2022-11-06T14:02:44.753Z,6.40
2022-11-06T14:03:51.482Z,5.28
2022-11-06T14:04:57.710Z,5.32
2022-11-06T14:06:04.403Z,5.55
2022-11-06T14:07:10.297Z,4.57
2022-11-06T14:08:22.068Z,5.95
2022-11-06T14:09:31.242Z,6.00
2022-11-06T14:10:39.445Z,8.00
2022-11-06T14:11:44.172Z,6.97
2022-11-06T14:12:49.488Z,7.65
2022-11-06T14:14:14.183Z,7.90
2022-11-06T14:15:19.521Z,7.25
2022-11-06T14:16:22.533Z,6.20
2022-11-06T14:17:27.153Z,6.80
2022-11-06T14:18:30.115Z,6.32
2022-11-06T14:19:33.137Z,7.10
2022-11-06T14:20:39.833Z,7.00
2022-11-06T14:21:45.988Z,8.65
2022-11-06T14:22:50.079Z,8.25
2022-11-06T14:24:06.426Z,9.60
2022-11-06T14:25:39.677Z,9.77
2022-11-06T14:26:50.395Z,7.43
2022-11-06T14:27:54.463Z,7.72
2022-11-06T14:28:57.473Z,5.32
2022-11-06T14:30:57.652Z,7.30
2022-11-06T14:32:00.647Z,4.97
2022-11-06T14:33:11.797Z,5.22
2022-11-06T14:34:31.616Z,8.13
2022-11-06T14:35:34.872Z,8.05
2022-11-06T14:36:38.036Z,7.72
2022-11-06T14:37:42.491Z,6.28
2022-11-06T14:38:46.079Z,7.07
2022-11-06T14:39:52.681Z,7.65
2022-11-06T14:40:56.267Z,10.93
2022-11-06T14:42:00.033Z,15.35
2022-11-06T14:43:24.303Z,15.68
2022-11-06T14:44:34.854Z,13.00
2022-11-06T14:45:37.765Z,19.02
2022-11-06T14:46:51.076Z,22.58
2022-11-06T14:47:56.799Z,21.55
2022-11-06T14:49:12.912Z,17.55
2022-11-06T14:50:19.266Z,17.58
2022-11-06T14:51:29.733Z,18.60
2022-11-06T14:52:47.118Z,16.23
2022-11-06T14:53:59.359Z,13.35
2022-11-06T14:55:06.222Z,14.70
2022-11-06T14:56:11.416Z,17.25
2022-11-06T14:57:18.825Z,16.50
2022-11-06T14:58:26.261Z,19.73
2022-11-06T14:59:35.713Z,20.38
2022-11-06T15:00:52.829Z,22.00
2022-11-06T15:02:06.561Z,20.80
2022-11-06T15:03:24.960Z,19.63
2022-11-06T15:04:32.378Z,17.13
2022-11-06T15:05:42.154Z,19.17
2022-11-06T15:06:52.482Z,15.85
2022-11-06T15:08:04.953Z,16.55
2022-11-06T15:09:25.396Z,15.82
2022-11-06T15:10:43.607Z,16.02
2022-11-06T15:11:51.443Z,15.15
2022-11-06T15:13:05.221Z,16.35
2022-11-06T15:14:11.245Z,16.02
2022-11-06T15:15:18.661Z,13.90
2022-11-06T15:16:24.466Z,11.27
2022-11-06T15:17:32.488Z,11.93
2022-11-06T15:18:36.658Z,7.45
2022-11-06T15:19:44.354Z,12.95
2022-11-06T15:20:51.950Z,13.20
2022-11-06T15:22:17.325Z,13.25
2022-11-06T15:23:24.665Z,12.50
2022-11-06T15:24:52.501Z,17.02
2022-11-06T15:26:14.509Z,12.20
2022-11-06T15:27:22.080Z,10.57
2022-11-06T15:28:29.349Z,11.30
2022-11-06T15:29:37.177Z,10.00
2022-11-06T15:31:02.224Z,18.25
2022-11-06T15:32:19.584Z,14.48
2022-11-06T15:33:49.435Z,20.75
2022-11-06T15:35:09.525Z,22.98
2022-11-06T15:36:18.774Z,20.58
2022-11-06T15:37:27.371Z,18.25
2022-11-06T15:38:56.933Z,14.63
2022-11-06T15:40:02.180Z,17.08
2022-11-06T15:41:12.249Z,16.45
2022-11-06T15:42:22.596Z,20.10
2022-11-06T15:43:33.238Z,16.25
2022-11-06T15:44:41.578Z,15.20
2022-11-06T15:45:44.926Z,15.40